Time;durP1;ratioP1;P1;durP2;ratioP2;P2;SDS_P1;SDS_P2;PMS_P1;PMS_P2;Temp;Humidity;BMP_temperature;BMP_pressure;BME280_temperature;BME280_humidity;BME280_pressure;Samples;Min_cycle;Max_cycle;Signal;HPM_P1;HPM_P2
2020/12/21 00:00:00;;;;;;;6.18;4.32;;;6.20;99.90;;;;;;5096741;28;20581;-79
2020/12/21 00:02:26;;;;;;;7.68;4.40;;;6.30;99.90;;;;;;5096688;28;20055;-79
2020/12/21 00:04:52;;;;;;;12.50;4.82;;;6.40;99.90;;;;;;5078389;28;20378;-79
2020/12/21 00:07:18;;;;;;;16.05;5.47;;;6.40;99.90;;;;;;5096620;28;20045;-79
2020/12/21 00:09:43;;;;;;;14.95;6.50;;;6.50;99.90;;;;;;5078586;28;20035;-80
2020/12/21 00:12:09;;;;;;;14.05;6.40;;;6.40;99.90;;;;;;5078279;28;20020;-80
2020/12/21 00:14:34;;;;;;;12.20;6.03;;;6.40;99.90;;;;;;5096707;28;20056;-80
2020/12/21 00:17:00;;;;;;;15.20;6.13;;;6.40;99.90;;;;;;5096587;28;20012;-80
2020/12/21 00:19:26;;;;;;;13.88;5.90;;;6.30;99.90;;;;;;5078199;28;20020;-79
2020/12/21 00:21:53;;;;;;;15.20;6.78;;;6.30;99.90;;;;;;5097138;28;20062;-79
2020/12/21 00:24:22;;;;;;;14.82;6.18;;;6.30;99.90;;;;;;5077843;28;20115;-79
2020/12/21 00:26:50;;;;;;;13.70;5.90;;;6.20;99.90;;;;;;5078064;28;20036;-80
2020/12/21 00:29:17;;;;;;;10.45;4.47;;;6.20;99.90;;;;;;5096130;28;20027;-80
2020/12/21 00:31:43;;;;;;;9.30;4.72;;;6.20;99.90;;;;;;5096001;28;20028;-80
2020/12/21 00:34:09;;;;;;;10.40;5.13;;;6.10;99.90;;;;;;5077788;28;20020;-79
2020/12/21 00:36:41;;;;;;;5.32;3.92;;;6.10;99.90;;;;;;5095946;28;20028;-79
2020/12/21 00:39:08;;;;;;;6.53;4.45;;;6.00;99.90;;;;;;5077791;28;20026;-80
2020/12/21 00:41:33;;;;;;;8.95;4.57;;;6.00;99.90;;;;;;5095906;28;20020;-79
2020/12/21 00:43:59;;;;;;;7.97;4.45;;;6.10;99.90;;;;;;5077624;28;20039;-80
2020/12/21 00:46:27;;;;;;;7.55;4.18;;;6.10;99.90;;;;;;5077707;28;20031;-79
2020/12/21 00:48:53;;;;;;;6.32;3.90;;;6.20;99.90;;;;;;5077577;28;20032;-79
2020/12/21 00:51:19;;;;;;;7.00;3.80;;;6.10;99.90;;;;;;5077551;28;20029;-79
2020/12/21 00:53:46;;;;;;;6.95;4.32;;;6.10;99.90;;;;;;5095715;28;20020;-80
2020/12/21 00:56:12;;;;;;;7.15;4.15;;;6.10;99.90;;;;;;5077529;28;20031;-80
2020/12/21 00:58:42;;;;;;;6.35;3.78;;;6.00;99.90;;;;;;5077394;28;20107;-79
2020/12/21 01:01:11;;;;;;;8.60;3.40;;;6.10;99.90;;;;;;5077364;28;20032;-80
2020/12/21 01:03:37;;;;;;;6.53;3.28;;;6.10;99.90;;;;;;5077416;28;20422;-79
2020/12/21 01:06:04;;;;;;;8.43;3.80;;;6.10;99.90;;;;;;5095461;28;20042;-80
2020/12/21 01:08:30;;;;;;;7.82;3.45;;;6.10;99.90;;;;;;5076249;28;20123;-79
2020/12/21 01:10:56;;;;;;;8.80;4.50;;;6.10;99.90;;;;;;5095273;28;20103;-79
2020/12/21 01:13:22;;;;;;;7.20;4.43;;;6.10;99.90;;;;;;5095331;28;20028;-79
2020/12/21 01:15:47;;;;;;;9.77;4.40;;;5.90;99.90;;;;;;5095486;28;20089;-79
2020/12/21 01:18:13;;;;;;;7.00;4.07;;;5.90;99.90;;;;;;5095510;28;20032;-79
2020/12/21 01:20:41;;;;;;;4.35;2.95;;;5.80;99.90;;;;;;5095197;28;20032;-79
2020/12/21 01:23:06;;;;;;;11.18;4.57;;;5.80;99.90;;;;;;5095092;28;20052;-79
2020/12/21 01:25:32;;;;;;;6.25;4.15;;;5.70;99.90;;;;;;5073386;28;20072;-79
2020/12/21 01:27:58;;;;;;;9.10;4.30;;;5.70;99.90;;;;;;5073537;28;20115;-80
2020/12/21 01:30:24;;;;;;;6.50;3.97;;;5.70;99.90;;;;;;5073370;28;20388;-79
2020/12/21 01:32:49;;;;;;;8.57;4.30;;;5.60;99.90;;;;;;5073427;28;20024;-79
2020/12/21 01:35:15;;;;;;;7.18;3.92;;;5.50;99.90;;;;;;5073408;28;20017;-79
2020/12/21 01:37:41;;;;;;;10.70;4.30;;;5.50;99.90;;;;;;5073265;28;20083;-79
2020/12/21 01:40:07;;;;;;;6.78;4.30;;;5.50;99.90;;;;;;5074561;28;20048;-79
2020/12/21 01:42:33;;;;;;;11.00;4.40;;;5.50;99.90;;;;;;5074447;28;20028;-79
2020/12/21 01:44:59;;;;;;;6.03;4.07;;;5.50;99.90;;;;;;5073146;28;20430;-79
2020/12/21 01:47:25;;;;;;;7.97;3.58;;;5.50;99.90;;;;;;5073106;28;20028;-80
2020/12/21 01:49:51;;;;;;;8.15;3.90;;;5.50;99.90;;;;;;5074347;28;20020;-79
2020/12/21 01:52:18;;;;;;;19.88;6.38;;;5.60;99.90;;;;;;5072967;28;20032;-79
2020/12/21 01:54:48;;;;;;;11.65;5.18;;;5.50;99.90;;;;;;5073018;28;20021;-79
2020/12/21 01:57:15;;;;;;;8.57;4.68;;;5.50;99.90;;;;;;5074283;28;20024;-79
2020/12/21 01:59:41;;;;;;;8.50;4.65;;;5.50;99.90;;;;;;5072909;28;20024;-79
2020/12/21 02:02:07;;;;;;;10.73;4.57;;;5.40;99.90;;;;;;5072878;28;20028;-79
2020/12/21 02:04:33;;;;;;;6.45;3.80;;;5.40;99.90;;;;;;5074431;28;20029;-79
2020/12/21 02:07:00;;;;;;;7.45;3.85;;;5.60;99.90;;;;;;5072783;28;20035;-79
2020/12/21 02:09:27;;;;;;;8.68;4.05;;;5.70;99.90;;;;;;5072733;28;20028;-79
2020/12/21 02:11:53;;;;;;;8.95;4.22;;;5.60;99.90;;;;;;5074230;28;20020;-79
2020/12/21 02:14:19;;;;;;;5.68;3.50;;;5.60;99.90;;;;;;5073993;28;20027;-79
2020/12/21 02:16:45;;;;;;;8.80;4.60;;;5.50;99.90;;;;;;5073806;28;20017;-80
2020/12/21 02:19:11;;;;;;;7.13;3.72;;;5.60;99.90;;;;;;5072384;28;20031;-80
2020/12/21 02:21:36;;;;;;;6.70;3.80;;;5.60;99.90;;;;;;5073814;28;20027;-79
2020/12/21 02:24:02;;;;;;;9.80;3.88;;;5.70;99.90;;;;;;5072542;28;20021;-79
2020/12/21 02:26:28;;;;;;;6.28;3.90;;;5.70;99.90;;;;;;5093606;28;20098;-79
2020/12/21 02:28:56;;;;;;;6.43;3.67;;;5.70;99.90;;;;;;5093922;28;20093;-79
2020/12/21 02:31:22;;;;;;;8.63;3.28;;;5.60;99.90;;;;;;5094163;28;20036;-79
2020/12/21 02:33:48;;;;;;;5.95;3.20;;;5.60;99.90;;;;;;5075805;28;20054;-79
2020/12/21 02:36:14;;;;;;;4.78;2.90;;;5.60;99.90;;;;;;5093820;28;20020;-80
2020/12/21 02:38:41;;;;;;;4.57;2.75;;;5.50;99.90;;;;;;5094128;28;20123;-79
2020/12/21 02:41:08;;;;;;;4.65;2.90;;;5.50;99.90;;;;;;5094113;28;20032;-79
2020/12/21 02:43:34;;;;;;;5.40;2.80;;;5.30;99.90;;;;;;5075660;28;20028;-79
2020/12/21 02:46:00;;;;;;;4.50;3.00;;;5.20;99.90;;;;;;5075631;28;20050;-79
2020/12/21 02:48:26;;;;;;;5.47;3.22;;;5.20;99.90;;;;;;5093710;28;20463;-79
2020/12/21 02:50:51;;;;;;;7.25;3.10;;;5.20;99.90;;;;;;5075458;28;20035;-79
2020/12/21 02:53:17;;;;;;;4.63;2.88;;;5.20;99.90;;;;;;5075638;28;20054;-79
2020/12/21 02:55:46;;;;;;;4.65;2.88;;;5.40;99.90;;;;;;5093718;28;20020;-79
2020/12/21 02:58:13;;;;;;;4.90;2.88;;;5.20;99.90;;;;;;5075481;28;20016;-79
2020/12/21 03:00:38;;;;;;;6.15;3.13;;;5.20;99.90;;;;;;5075738;28;20024;-79
2020/12/21 03:03:06;;;;;;;5.35;2.90;;;5.10;99.90;;;;;;5075367;28;20017;-79
2020/12/21 03:05:33;;;;;;;5.43;2.92;;;5.20;99.90;;;;;;5075459;28;20082;-80
2020/12/21 03:08:00;;;;;;;8.77;3.30;;;5.20;99.90;;;;;;5075374;28;20068;-80
2020/12/21 03:10:27;;;;;;;7.72;3.08;;;5.00;99.90;;;;;;5093477;28;20472;-79
2020/12/21 03:12:53;;;;;;;5.18;2.80;;;5.00;99.90;;;;;;5093715;28;20501;-79
2020/12/21 03:15:19;;;;;;;6.95;3.10;;;4.90;99.90;;;;;;5093472;28;20028;-79
2020/12/21 03:17:44;;;;;;;5.70;3.17;;;4.80;99.90;;;;;;5075266;28;20120;-79
2020/12/21 03:20:10;;;;;;;7.97;2.83;;;4.90;99.90;;;;;;5075278;28;20107;-79
2020/12/21 03:22:36;;;;;;;4.38;2.22;;;4.90;99.90;;;;;;5093974;28;20446;-79
2020/12/21 03:25:02;;;;;;;2.72;1.83;;;4.90;99.90;;;;;;5093147;28;20052;-79
2020/12/21 03:27:27;;;;;;;7.25;2.33;;;4.80;99.90;;;;;;5075223;28;20483;-79
2020/12/21 03:29:53;;;;;;;4.53;2.55;;;4.80;99.90;;;;;;5075308;28;20024;-79
2020/12/21 03:32:20;;;;;;;5.50;3.00;;;4.80;99.90;;;;;;5096783;28;20499;-79
2020/12/21 03:34:45;;;;;;;4.05;2.67;;;4.70;99.90;;;;;;5079101;28;20154;-79
2020/12/21 03:37:11;;;;;;;3.67;2.22;;;4.80;99.90;;;;;;5097220;28;20449;-79
2020/12/21 03:39:38;;;;;;;5.00;2.42;;;4.80;99.90;;;;;;5079363;28;20098;-79
2020/12/21 03:42:03;;;;;;;5.63;2.33;;;4.70;99.90;;;;;;5078964;28;20020;-79
2020/12/21 03:44:30;;;;;;;4.63;2.47;;;4.80;99.90;;;;;;5078898;28;20028;-79
2020/12/21 03:46:56;;;;;;;3.30;2.33;;;4.80;99.90;;;;;;5096984;28;20035;-79
2020/12/21 03:49:22;;;;;;;7.30;2.40;;;5.10;99.90;;;;;;5078714;28;20028;-79
2020/12/21 03:51:48;;;;;;;6.05;2.40;;;5.10;99.90;;;;;;5078561;28;20028;-79
2020/12/21 03:54:13;;;;;;;5.13;2.85;;;5.00;99.90;;;;;;5096865;28;20095;-80
2020/12/21 03:56:43;;;;;;;5.18;2.88;;;4.80;99.90;;;;;;5096807;28;20024;-79
2020/12/21 03:59:09;;;;;;;4.07;2.20;;;4.60;99.90;;;;;;5078554;28;20020;-79
2020/12/21 04:01:36;;;;;;;4.05;2.42;;;4.60;99.90;;;;;;5078468;28;20051;-79
2020/12/21 04:04:02;;;;;;;3.45;1.73;;;4.50;99.90;;;;;;5096898;28;20404;-79
2020/12/21 04:06:27;;;;;;;3.35;1.98;;;4.70;99.90;;;;;;5078441;28;20077;-79
2020/12/21 04:08:53;;;;;;;5.68;2.35;;;4.50;99.90;;;;;;5096653;28;20099;-79
2020/12/21 04:11:19;;;;;;;4.40;2.25;;;4.50;99.90;;;;;;5096472;28;20028;-79
2020/12/21 04:13:44;;;;;;;5.00;2.20;;;4.50;99.90;;;;;;5096524;28;20020;-79
2020/12/21 04:16:10;;;;;;;9.23;2.75;;;4.50;99.90;;;;;;5078244;28;20074;-79
2020/12/21 04:18:36;;;;;;;4.80;2.50;;;4.50;99.90;;;;;;5078231;28;20028;-79
2020/12/21 04:21:01;;;;;;;5.20;2.33;;;4.40;99.90;;;;;;5078225;28;20078;-79
2020/12/21 04:23:27;;;;;;;4.53;2.63;;;4.50;99.90;;;;;;5096321;28;20035;-79
2020/12/21 04:25:53;;;;;;;4.85;2.63;;;4.50;99.90;;;;;;5077946;28;20052;-79
2020/12/21 04:28:18;;;;;;;5.63;2.72;;;4.50;99.90;;;;;;5078092;28;20039;-79
2020/12/21 04:30:44;;;;;;;8.43;2.78;;;4.50;99.90;;;;;;5077989;28;20028;-79
2020/12/21 04:33:09;;;;;;;5.63;2.47;;;4.40;99.90;;;;;;5078012;28;20016;-79
2020/12/21 04:35:35;;;;;;;4.13;2.70;;;4.30;99.90;;;;;;5077960;28;20356;-79
2020/12/21 04:38:01;;;;;;;4.72;2.53;;;4.60;99.90;;;;;;5077961;28;20475;-79
2020/12/21 04:40:26;;;;;;;6.78;2.80;;;4.60;99.90;;;;;;5096262;28;20375;-79
2020/12/21 04:42:55;;;;;;;4.72;2.63;;;4.60;99.90;;;;;;5077702;28;20020;-79
2020/12/21 04:45:21;;;;;;;3.90;2.40;;;4.60;99.90;;;;;;5077641;28;20020;-79
2020/12/21 04:47:47;;;;;;;6.13;2.33;;;4.50;99.90;;;;;;5096054;28;20035;-79
2020/12/21 04:50:16;;;;;;;5.28;2.40;;;4.60;99.90;;;;;;5095590;28;20034;-79
2020/12/21 04:52:50;;;;;;;5.05;2.80;;;4.60;99.90;;;;;;5095592;28;20559;-79
2020/12/21 04:55:19;;;;;;;4.10;2.55;;;4.60;99.90;;;;;;5077585;28;20482;-79
2020/12/21 04:58:04;;;;;;;9.23;2.50;;;4.60;99.90;;;;;;5077486;28;20028;-80
2020/12/21 05:00:32;;;;;;;5.05;2.53;;;4.70;99.90;;;;;;5078295;28;20055;-80
2020/12/21 05:02:59;;;;;;;4.22;2.35;;;4.70;99.90;;;;;;5077363;28;20107;-79
2020/12/21 05:05:40;;;;;;;6.05;2.38;;;4.80;99.90;;;;;;5077331;28;20066;-79
2020/12/21 05:08:19;;;;;;;4.85;2.20;;;4.90;99.90;;;;;;5077235;28;20016;-79
2020/12/21 05:11:05;;;;;;;9.10;2.80;;;5.00;99.90;;;;;;5077406;28;20020;-79
2020/12/21 05:13:34;;;;;;;2.85;2.13;;;5.20;99.90;;;;;;5095261;28;20099;-79
2020/12/21 05:16:01;;;;;;;5.60;2.70;;;5.00;99.90;;;;;;5077058;28;20020;-79
2020/12/21 05:18:34;;;;;;;2.95;2.38;;;4.90;99.90;;;;;;5095189;28;20417;-79
2020/12/21 05:21:08;;;;;;;6.57;2.95;;;4.80;99.90;;;;;;5077057;28;20024;-79
2020/12/21 05:23:35;;;;;;;4.47;2.40;;;4.90;99.90;;;;;;5076991;28;20439;-79
2020/12/21 05:26:05;;;;;;;5.72;2.97;;;5.00;99.90;;;;;;5094858;28;20290;-79
2020/12/21 05:28:39;;;;;;;3.83;2.58;;;4.90;99.90;;;;;;5076797;28;20474;-79
2020/12/21 05:31:09;;;;;;;5.75;2.92;;;4.80;99.90;;;;;;5094959;28;20431;-79
2020/12/21 05:33:40;;;;;;;5.70;2.92;;;4.70;99.90;;;;;;5076805;28;20020;-79
2020/12/21 05:36:09;;;;;;;5.03;2.47;;;4.70;99.90;;;;;;5094891;28;20098;-79
2020/12/21 05:38:35;;;;;;;3.53;2.50;;;4.80;99.90;;;;;;5095367;28;20016;-79
2020/12/21 05:41:17;;;;;;;5.97;2.88;;;5.10;99.90;;;;;;5076552;28;20030;-79
2020/12/21 05:43:44;;;;;;;3.17;2.35;;;5.10;99.90;;;;;;5076527;28;20016;-79
2020/12/21 05:46:17;;;;;;;3.15;2.58;;;5.10;99.90;;;;;;5076584;28;20532;-79
2020/12/21 05:48:51;;;;;;;6.90;2.42;;;5.10;99.90;;;;;;5076422;28;20055;-79
2020/12/21 05:51:30;;;;;;;4.18;2.63;;;5.00;99.90;;;;;;5094451;28;20422;-79
2020/12/21 05:53:57;;;;;;;5.55;2.60;;;5.00;99.90;;;;;;5093972;28;20103;-79
2020/12/21 05:56:25;;;;;;;3.47;2.60;;;5.10;99.90;;;;;;5094447;28;20020;-79
2020/12/21 05:58:51;;;;;;;5.20;2.40;;;5.20;99.90;;;;;;5094436;28;20069;-79
2020/12/21 06:01:18;;;;;;;4.53;3.03;;;5.40;99.90;;;;;;5094633;28;20077;-79
2020/12/21 06:03:46;;;;;;;6.85;2.78;;;5.50;99.90;;;;;;5076194;28;20028;-79
2020/12/21 06:06:19;;;;;;;5.78;3.72;;;5.50;99.90;;;;;;5094352;28;20020;-79
2020/12/21 06:08:47;;;;;;;4.47;3.20;;;5.50;99.90;;;;;;5094548;28;20028;-79
2020/12/21 06:11:16;;;;;;;5.40;2.97;;;5.40;99.90;;;;;;5075987;28;20031;-79
2020/12/21 06:13:48;;;;;;;12.30;4.13;;;5.50;99.90;;;;;;5075909;28;20024;-79
2020/12/21 06:16:16;;;;;;;9.55;4.65;;;5.50;99.90;;;;;;5094082;28;20552;-79
2020/12/21 06:18:42;;;;;;;3.50;2.40;;;5.50;99.90;;;;;;5094196;28;20055;-79
2020/12/21 06:21:08;;;;;;;11.82;7.22;;;5.60;99.90;;;;;;5075939;28;20024;-79
2020/12/21 06:23:39;;;;;;;9.05;4.65;;;5.40;99.90;;;;;;5093974;28;20383;-79
2020/12/21 06:26:45;;;;;;;8.75;5.53;;;5.20;99.90;;;;;;5093851;28;20501;-79
2020/12/21 06:29:15;;;;;;;9.35;5.68;;;5.20;99.90;;;;;;5093007;28;20032;-79
2020/12/21 06:31:52;;;;;;;7.53;5.13;;;5.30;99.90;;;;;;5093746;28;20073;-80
2020/12/21 06:34:39;;;;;;;11.52;4.45;;;5.60;99.90;;;;;;5075795;28;20029;-79
2020/12/21 06:37:20;;;;;;;4.90;3.33;;;5.80;99.90;;;;;;5075656;28;20024;-79
2020/12/21 06:40:02;;;;;;;6.50;3.28;;;5.90;99.90;;;;;;5075671;28;20029;-79
2020/12/21 06:42:28;;;;;;;8.50;4.10;;;5.90;99.90;;;;;;5059085;28;20039;-79
2020/12/21 06:44:55;;;;;;;10.73;4.60;;;5.80;99.90;;;;;;5075559;28;20399;-79
2020/12/21 06:47:26;;;;;;;9.48;5.20;;;5.80;99.90;;;;;;5075621;28;20396;-79
2020/12/21 06:49:52;;;;;;;7.28;4.70;;;5.80;99.90;;;;;;5075511;28;20507;-79
2020/12/21 06:52:19;;;;;;;7.60;4.60;;;5.80;99.90;;;;;;5075435;28;20024;-79
2020/12/21 06:54:48;;;;;;;6.93;4.53;;;5.80;99.90;;;;;;5075585;28;20067;-79
2020/12/21 06:57:14;;;;;;;10.93;4.93;;;5.80;99.90;;;;;;5075540;28;20421;-79
2020/12/21 06:59:39;;;;;;;9.80;5.10;;;5.90;99.90;;;;;;5075553;28;20016;-79
2020/12/21 07:02:05;;;;;;;11.30;5.03;;;5.80;99.90;;;;;;5093792;28;20483;-79
2020/12/21 07:04:33;;;;;;;8.75;3.75;;;5.90;99.90;;;;;;5093630;28;20518;-79
2020/12/21 07:07:04;;;;;;;13.40;4.90;;;5.80;99.90;;;;;;5096701;28;20058;-78
2020/12/21 07:09:32;;;;;;;10.98;5.20;;;5.80;99.90;;;;;;5079532;28;20077;-79
2020/12/21 07:12:00;;;;;;;10.68;5.20;;;5.90;99.90;;;;;;5097806;28;20016;-79
2020/12/21 07:14:28;;;;;;;11.23;5.15;;;5.90;99.90;;;;;;5097610;28;20097;-78
2020/12/21 07:17:11;;;;;;;10.38;4.63;;;5.80;99.90;;;;;;5079359;28;20024;-79
2020/12/21 07:19:39;;;;;;;12.95;5.57;;;5.80;99.90;;;;;;5097934;28;20352;-79
2020/12/21 07:22:08;;;;;;;11.75;5.82;;;5.80;99.90;;;;;;5079361;28;20050;-77
2020/12/21 07:24:35;;;;;;;17.73;6.90;;;5.70;99.90;;;;;;5078841;28;20048;-78
2020/12/21 07:27:00;;;;;;;13.63;6.80;;;5.60;99.90;;;;;;5079139;28;20081;-77
2020/12/21 07:29:37;;;;;;;12.30;6.57;;;5.50;99.90;;;;;;5097251;28;20020;-78
2020/12/21 07:32:03;;;;;;;9.65;6.22;;;5.40;99.90;;;;;;5078984;28;20073;-81
2020/12/21 07:34:29;;;;;;;17.25;7.07;;;5.40;99.90;;;;;;5079057;28;20024;-77
2020/12/21 07:36:56;;;;;;;12.32;6.82;;;5.30;99.90;;;;;;5079009;28;20425;-78
2020/12/21 07:39:22;;;;;;;17.80;6.88;;;5.30;99.90;;;;;;5097158;28;20121;-78
2020/12/21 07:41:51;;;;;;;41.95;9.52;;;5.30;99.90;;;;;;5097060;28;20024;-77
2020/12/21 07:44:23;;;;;;;22.83;7.57;;;5.30;99.90;;;;;;5097597;28;20024;-79
2020/12/21 07:47:07;;;;;;;18.27;7.47;;;5.30;99.90;;;;;;5097050;28;20475;-79
2020/12/21 07:49:36;;;;;;;12.77;7.20;;;5.40;99.90;;;;;;5096986;28;20135;-79
2020/12/21 07:52:04;;;;;;;13.80;6.13;;;5.40;99.90;;;;;;5078500;28;20482;-78
2020/12/21 07:54:43;;;;;;;15.98;6.65;;;5.50;99.90;;;;;;5078682;28;20078;-80
2020/12/21 07:57:11;;;;;;;14.10;6.82;;;5.50;99.90;;;;;;5096826;28;20015;-80
2020/12/21 07:59:36;;;;;;;10.52;6.00;;;5.60;99.90;;;;;;5096678;28;20099;-81
2020/12/21 08:02:07;;;;;;;28.38;8.27;;;5.50;99.90;;;;;;5096659;28;20055;-80
2020/12/21 08:04:33;;;;;;;18.95;7.43;;;5.60;99.90;;;;;;5079275;28;20427;-80
2020/12/21 08:07:12;;;;;;;23.70;6.97;;;5.60;99.90;;;;;;5096844;28;20035;-81
2020/12/21 08:09:40;;;;;;;16.23;7.15;;;5.70;99.90;;;;;;5096816;28;20032;-81
2020/12/21 08:12:16;;;;;;;15.93;7.28;;;5.70;99.90;;;;;;5096423;28;20056;-80
2020/12/21 08:14:43;;;;;;;13.68;6.40;;;5.70;99.90;;;;;;5097036;28;20040;-81
2020/12/21 08:17:16;;;;;;;10.82;6.18;;;5.70;99.90;;;;;;5095843;28;20106;-80
2020/12/21 08:19:56;;;;;;;22.58;7.00;;;5.80;99.90;;;;;;5096996;28;20016;-80
2020/12/21 08:22:26;;;;;;;20.50;6.38;;;5.80;99.90;;;;;;5096627;28;20030;-80
2020/12/21 08:25:06;;;;;;;12.48;6.07;;;5.90;99.90;;;;;;5077938;28;20052;-81
2020/12/21 08:27:32;;;;;;;8.60;5.85;;;5.80;99.90;;;;;;5096520;28;20570;-80
2020/12/21 08:30:24;;;;;;;11.63;6.20;;;5.90;99.90;;;;;;5096760;28;20113;-80
2020/12/21 08:32:52;;;;;;;17.90;6.88;;;6.00;99.90;;;;;;5091655;28;20043;-80
2020/12/21 08:35:29;;;;;;;11.48;5.35;;;6.10;99.90;;;;;;5077816;28;20103;-81
2020/12/21 08:38:13;;;;;;;13.45;5.90;;;6.10;99.90;;;;;;5077918;28;20020;-80
2020/12/21 08:40:40;;;;;;;13.95;5.60;;;6.10;99.90;;;;;;5077899;28;20028;-80
2020/12/21 08:43:05;;;;;;;13.98;5.80;;;6.10;99.90;;;;;;5077787;28;20024;-81
2020/12/21 08:45:37;;;;;;;11.98;6.18;;;6.20;99.90;;;;;;5077785;28;20016;-80
2020/12/21 08:48:03;;;;;;;11.13;5.47;;;6.10;99.90;;;;;;5077651;28;20035;-81
2020/12/21 08:50:28;;;;;;;9.93;5.93;;;6.20;99.90;;;;;;5095740;28;20021;-80
2020/12/21 08:52:54;;;;;;;14.40;5.30;;;6.20;99.90;;;;;;5095682;28;20099;-81
2020/12/21 08:55:20;;;;;;;11.75;4.97;;;6.20;99.90;;;;;;5077498;28;20016;-80
2020/12/21 08:57:45;;;;;;;23.50;11.32;;;6.20;99.90;;;;;;5077517;28;20020;-81
2020/12/21 09:00:11;;;;;;;16.90;5.82;;;6.30;99.90;;;;;;5077390;28;20107;-80
2020/12/21 09:02:36;;;;;;;9.70;5.30;;;6.30;99.90;;;;;;5095573;28;20027;-80
2020/12/21 09:05:05;;;;;;;13.73;5.13;;;6.20;99.90;;;;;;5077343;28;20028;-81
2020/12/21 09:07:31;;;;;;;10.13;4.85;;;6.30;99.90;;;;;;5095436;28;20034;-80
2020/12/21 09:09:56;;;;;;;6.72;3.88;;;6.30;99.90;;;;;;5095545;28;20028;-80
2020/12/21 09:12:22;;;;;;;13.23;5.07;;;6.30;99.90;;;;;;5077075;28;20035;-81
2020/12/21 09:14:48;;;;;;;8.57;4.03;;;6.30;99.90;;;;;;5077150;28;20020;-80
2020/12/21 09:17:13;;;;;;;8.23;4.28;;;6.30;99.90;;;;;;5095182;28;20020;-80
2020/12/21 09:19:39;;;;;;;8.10;4.53;;;6.30;99.90;;;;;;5077128;28;20024;-80
2020/12/21 09:22:05;;;;;;;8.23;4.32;;;6.40;99.90;;;;;;5077021;28;20100;-80
2020/12/21 09:24:30;;;;;;;9.75;3.88;;;6.50;99.90;;;;;;5095346;28;20093;-81
2020/12/21 09:26:56;;;;;;;7.88;4.65;;;6.60;99.90;;;;;;5076949;28;20028;-80
2020/12/21 09:29:22;;;;;;;9.75;3.90;;;6.60;99.90;;;;;;5075854;28;20028;-80
2020/12/21 09:31:47;;;;;;;8.02;4.28;;;6.60;99.90;;;;;;5094828;28;20032;-80
2020/12/21 09:34:13;;;;;;;7.85;4.07;;;6.60;99.90;;;;;;5095238;28;20344;-80
2020/12/21 09:36:42;;;;;;;9.93;4.25;;;6.80;99.90;;;;;;5076718;28;20024;-80
2020/12/21 09:39:08;;;;;;;8.98;4.57;;;6.80;99.90;;;;;;5076549;28;20020;-81
2020/12/21 09:41:34;;;;;;;6.97;3.90;;;6.80;99.90;;;;;;5095456;28;20136;-78
2020/12/21 09:44:00;;;;;;;11.77;3.83;;;6.80;99.90;;;;;;5076552;28;20024;-78
2020/12/21 09:46:26;;;;;;;9.82;4.10;;;6.80;99.90;;;;;;5095013;28;20514;-78
2020/12/21 09:48:53;;;;;;;21.42;5.45;;;6.70;99.90;;;;;;5076489;28;20138;-78
2020/12/21 09:51:19;;;;;;;11.55;4.20;;;6.70;99.90;;;;;;5076392;28;20111;-78
2020/12/21 09:53:45;;;;;;;14.10;4.03;;;6.70;99.90;;;;;;5076350;28;20387;-78
2020/12/21 09:56:12;;;;;;;25.17;4.93;;;6.70;99.90;;;;;;5094492;28;20024;-78
2020/12/21 09:58:38;;;;;;;12.70;4.40;;;6.70;99.90;;;;;;5076275;28;20016;-78
2020/12/21 10:01:04;;;;;;;10.98;4.40;;;6.70;99.90;;;;;;5094597;28;20027;-77
2020/12/21 10:03:30;;;;;;;9.57;4.80;;;6.70;99.90;;;;;;5077344;28;20039;-77
2020/12/21 10:05:56;;;;;;;23.08;4.68;;;6.70;99.90;;;;;;5095635;28;20020;-77
2020/12/21 10:08:21;;;;;;;8.23;4.70;;;6.70;99.90;;;;;;5094280;28;20373;-76
2020/12/21 10:10:48;;;;;;;14.32;5.20;;;6.70;99.90;;;;;;5094229;28;20464;-77
2020/12/21 10:13:14;;;;;;;12.98;4.95;;;6.60;99.90;;;;;;5094273;28;20021;-77
2020/12/21 10:15:39;;;;;;;10.88;5.75;;;6.60;99.90;;;;;;5094133;28;20027;-76
2020/12/21 10:18:05;;;;;;;19.90;7.00;;;6.50;99.90;;;;;;5094294;28;20024;-77
2020/12/21 10:20:31;;;;;;;122.43;11.43;;;6.50;99.90;;;;;;5094460;28;20069;-76
2020/12/21 10:22:56;;;;;;;31.95;7.25;;;6.50;99.90;;;;;;5075859;28;20114;-77
2020/12/21 10:25:22;;;;;;;105.28;9.73;;;6.50;99.90;;;;;;5093859;28;20055;-77
2020/12/21 10:27:48;;;;;;;11.45;5.50;;;6.60;99.90;;;;;;5094167;28;20076;-79
2020/12/21 10:30:15;;;;;;;11.80;5.28;;;6.70;99.90;;;;;;5093984;28;20028;-79
2020/12/21 10:32:43;;;;;;;27.85;6.00;;;6.60;99.90;;;;;;5094355;28;20031;-79
2020/12/21 10:35:09;;;;;;;40.80;6.82;;;6.50;99.90;;;;;;5094226;28;20374;-79
2020/12/21 10:37:34;;;;;;;7.85;4.75;;;6.40;99.90;;;;;;5094763;28;20024;-80
2020/12/21 10:40:00;;;;;;;8.18;5.43;;;6.40;99.90;;;;;;5094141;28;20020;-78
2020/12/21 10:42:26;;;;;;;12.88;6.00;;;6.30;99.90;;;;;;5094173;28;20032;-79
2020/12/21 10:44:51;;;;;;;14.05;5.50;;;6.30;99.90;;;;;;5093693;28;20541;-79
2020/12/21 10:47:17;;;;;;;11.68;5.90;;;6.40;99.90;;;;;;5075553;28;20024;-79
2020/12/21 10:49:43;;;;;;;9.40;6.22;;;6.50;99.90;;;;;;5093580;28;20475;-79
2020/12/21 10:52:08;;;;;;;9.68;5.47;;;6.50;99.90;;;;;;5093566;28;20074;-79
2020/12/21 10:54:34;;;;;;;8.82;5.65;;;6.50;99.90;;;;;;5093612;28;20024;-79
2020/12/21 10:57:03;;;;;;;20.02;6.20;;;6.50;99.90;;;;;;5093862;28;20048;-79
2020/12/21 10:59:29;;;;;;;11.15;5.65;;;6.60;99.90;;;;;;5093778;28;20020;-79
2020/12/21 11:01:55;;;;;;;9.38;5.85;;;6.50;99.90;;;;;;5093797;28;20020;-79
2020/12/21 11:04:20;;;;;;;9.27;5.35;;;6.50;99.90;;;;;;5075415;28;20024;-79
2020/12/21 11:06:46;;;;;;;8.63;5.43;;;6.50;99.90;;;;;;5093854;28;20028;-79
2020/12/21 11:09:12;;;;;;;7.32;5.65;;;6.50;99.90;;;;;;5075450;28;20108;-79
2020/12/21 11:11:37;;;;;;;13.00;6.78;;;6.50;99.90;;;;;;5075425;28;20027;-79
2020/12/21 11:14:04;;;;;;;15.55;7.35;;;6.50;99.90;;;;;;5093319;28;20046;-79
2020/12/21 11:16:31;;;;;;;14.63;6.72;;;6.50;99.90;;;;;;5093406;28;20028;-80
2020/12/21 11:18:58;;;;;;;9.68;6.60;;;6.50;99.90;;;;;;5093344;28;20383;-79
2020/12/21 11:21:24;;;;;;;12.15;6.32;;;6.50;99.90;;;;;;5093431;28;20024;-79
2020/12/21 11:23:49;;;;;;;10.35;6.60;;;6.50;99.90;;;;;;5093638;28;20028;-79
2020/12/21 11:26:15;;;;;;;11.02;7.22;;;6.60;99.90;;;;;;5071762;28;20048;-80
2020/12/21 11:28:41;;;;;;;13.90;7.30;;;6.50;99.90;;;;;;5073104;28;20028;-82
2020/12/21 11:31:07;;;;;;;13.13;6.90;;;6.60;99.90;;;;;;5076165;28;20024;-80
2020/12/21 11:33:33;;;;;;;10.05;6.35;;;6.60;99.90;;;;;;5076220;28;20024;-78
2020/12/21 11:35:58;;;;;;;11.15;6.40;;;6.70;99.90;;;;;;5075951;28;20023;-80
2020/12/21 11:38:24;;;;;;;13.10;6.50;;;6.80;99.90;;;;;;5075229;28;20024;-80
2020/12/21 11:40:50;;;;;;;9.32;6.82;;;6.80;99.90;;;;;;5076068;28;20020;-78
2020/12/21 11:43:17;;;;;;;12.88;6.68;;;6.90;99.90;;;;;;5077053;28;20034;-78
2020/12/21 11:45:44;;;;;;;11.07;6.35;;;6.90;99.90;;;;;;5075480;28;20112;-80
2020/12/21 11:48:10;;;;;;;8.55;6.43;;;7.00;99.90;;;;;;5077978;28;20023;-81
2020/12/21 11:50:35;;;;;;;9.65;6.55;;;7.00;99.90;;;;;;5077448;28;20021;-81
2020/12/21 11:53:02;;;;;;;10.15;6.32;;;7.10;99.90;;;;;;5078223;28;20112;-79
2020/12/21 11:55:28;;;;;;;10.27;6.38;;;7.10;99.90;;;;;;5078026;28;20052;-81
2020/12/21 11:57:53;;;;;;;9.48;6.32;;;7.10;99.90;;;;;;5079831;28;20020;-79
2020/12/21 12:00:19;;;;;;;11.75;6.50;;;7.20;99.90;;;;;;5078355;28;20034;-79
2020/12/21 12:02:45;;;;;;;14.80;9.18;;;7.10;99.90;;;;;;5077312;28;20021;-79
2020/12/21 12:05:11;;;;;;;20.58;9.95;;;7.00;99.90;;;;;;5077166;28;20025;-79
2020/12/21 12:07:38;;;;;;;15.13;9.85;;;7.00;99.90;;;;;;5075188;28;20108;-80
2020/12/21 12:10:05;;;;;;;10.02;6.35;;;7.00;99.90;;;;;;5075256;28;20501;-79
2020/12/21 12:12:30;;;;;;;11.70;6.88;;;7.00;99.90;;;;;;5075241;28;20115;-79
2020/12/21 12:14:56;;;;;;;10.18;7.22;;;7.00;99.90;;;;;;5077600;28;20071;-79
2020/12/21 12:17:22;;;;;;;9.52;7.03;;;7.00;99.90;;;;;;5058846;28;20033;-80
2020/12/21 12:19:49;;;;;;;10.23;5.97;;;7.10;99.90;;;;;;5076728;28;20017;-80
2020/12/21 12:22:15;;;;;;;12.40;8.68;;;7.10;99.90;;;;;;5076832;28;20021;-80
2020/12/21 12:24:41;;;;;;;9.52;6.60;;;7.10;99.90;;;;;;5080698;28;20055;-80
2020/12/21 12:27:06;;;;;;;11.77;7.10;;;7.20;99.90;;;;;;5096838;28;20048;-80
2020/12/21 12:29:32;;;;;;;10.85;7.18;;;7.20;99.90;;;;;;5078074;28;20513;-80
2020/12/21 12:31:58;;;;;;;10.25;7.03;;;7.20;99.90;;;;;;5078064;28;20472;-80
2020/12/21 12:34:24;;;;;;;13.23;8.00;;;7.30;99.90;;;;;;5077955;28;20387;-80
2020/12/21 12:36:49;;;;;;;11.77;7.63;;;7.30;99.90;;;;;;5096437;28;20028;-80
2020/12/21 12:39:17;;;;;;;13.13;7.25;;;7.40;99.90;;;;;;5077882;28;20458;-78
2020/12/21 12:41:43;;;;;;;14.73;7.40;;;7.40;99.90;;;;;;5077752;28;20024;-79
2020/12/21 12:44:10;;;;;;;10.68;6.28;;;7.40;99.90;;;;;;5095963;28;20484;-80
2020/12/21 12:46:37;;;;;;;36.25;21.63;;;7.50;99.90;;;;;;5096310;28;20028;-80
2020/12/21 12:49:04;;;;;;;12.15;7.35;;;7.60;99.90;;;;;;5095864;28;20559;-80
2020/12/21 12:51:31;;;;;;;11.27;8.52;;;7.60;99.90;;;;;;5079331;28;20024;-80
2020/12/21 12:53:57;;;;;;;10.55;7.90;;;7.60;99.90;;;;;;5095741;28;20422;-80